sensor_id;sensor_type;location;lat;lon;timestamp;P1;durP1;ratioP1;P2;durP2;ratioP2
28086;SDS011;15392;48.912;8.380;2023-03-03T00:01:12;9.68;;;9.02;;
28086;SDS011;15392;48.912;8.380;2023-03-03T00:03:38;9.35;;;8.70;;
28086;SDS011;15392;48.912;8.380;2023-03-03T00:06:04;9.15;;;8.45;;
28086;SDS011;15392;48.912;8.380;2023-03-03T00:08:34;9.35;;;8.57;;
28086;SDS011;15392;48.912;8.380;2023-03-03T00:10:59;9.55;;;8.88;;
28086;SDS011;15392;48.912;8.380;2023-03-03T00:13:27;9.20;;;8.60;;
28086;SDS011;15392;48.912;8.380;2023-03-03T00:15:56;9.23;;;8.63;;
28086;SDS011;15392;48.912;8.380;2023-03-03T00:18:47;8.73;;;8.20;;
28086;SDS011;15392;48.912;8.380;2023-03-03T00:21:24;9.48;;;8.73;;
28086;SDS011;15392;48.912;8.380;2023-03-03T00:24:10;9.32;;;8.63;;
28086;SDS011;15392;48.912;8.380;2023-03-03T00:26:55;8.98;;;8.38;;
28086;SDS011;15392;48.912;8.380;2023-03-03T00:38:01;9.50;;;8.80;;
28086;SDS011;15392;48.912;8.380;2023-03-03T00:40:39;9.88;;;9.18;;
28086;SDS011;15392;48.912;8.380;2023-03-03T00:43:21;9.45;;;8.82;;
28086;SDS011;15392;48.912;8.380;2023-03-03T00:45:56;9.68;;;8.98;;
28086;SDS011;15392;48.912;8.380;2023-03-03T00:50:53;9.55;;;8.77;;
28086;SDS011;15392;48.912;8.380;2023-03-03T00:53:22;9.55;;;8.85;;
28086;SDS011;15392;48.912;8.380;2023-03-03T00:55:51;9.43;;;8.73;;
28086;SDS011;15392;48.912;8.380;2023-03-03T00:58:18;10.40;;;9.68;;
28086;SDS011;15392;48.912;8.380;2023-03-03T01:00:47;10.10;;;9.40;;
28086;SDS011;15392;48.912;8.380;2023-03-03T01:03:16;10.18;;;9.48;;
28086;SDS011;15392;48.912;8.380;2023-03-03T01:05:45;10.88;;;10.10;;
28086;SDS011;15392;48.912;8.380;2023-03-03T01:08:12;11.07;;;10.27;;
28086;SDS011;15392;48.912;8.380;2023-03-03T01:10:43;10.95;;;10.05;;
28086;SDS011;15392;48.912;8.380;2023-03-03T01:13:17;10.35;;;9.65;;
28086;SDS011;15392;48.912;8.380;2023-03-03T01:15:45;11.27;;;10.48;;
28086;SDS011;15392;48.912;8.380;2023-03-03T01:18:11;10.88;;;10.07;;
28086;SDS011;15392;48.912;8.380;2023-03-03T01:20:38;10.80;;;9.98;;
28086;SDS011;15392;48.912;8.380;2023-03-03T01:23:04;11.05;;;10.15;;
28086;SDS011;15392;48.912;8.380;2023-03-03T01:25:30;10.45;;;9.65;;
28086;SDS011;15392;48.912;8.380;2023-03-03T01:27:56;10.40;;;9.70;;
28086;SDS011;15392;48.912;8.380;2023-03-03T01:30:23;11.65;;;10.75;;
28086;SDS011;15392;48.912;8.380;2023-03-03T01:32:50;10.60;;;9.80;;
28086;SDS011;15392;48.912;8.380;2023-03-03T01:42:31;8.65;;;8.05;;
28086;SDS011;15392;48.912;8.380;2023-03-03T01:45:11;9.43;;;8.73;;
28086;SDS011;15392;48.912;8.380;2023-03-03T01:47:45;10.23;;;9.32;;
28086;SDS011;15392;48.912;8.380;2023-03-03T01:50:20;10.60;;;9.70;;
28086;SDS011;15392;48.912;8.380;2023-03-03T01:53:20;10.15;;;9.45;;
28086;SDS011;15392;48.912;8.380;2023-03-03T01:55:53;10.70;;;9.90;;
28086;SDS011;15392;48.912;8.380;2023-03-03T01:58:20;10.82;;;9.93;;
28086;SDS011;15392;48.912;8.380;2023-03-03T02:00:56;10.52;;;9.73;;
28086;SDS011;15392;48.912;8.380;2023-03-03T02:03:29;10.52;;;9.80;;
28086;SDS011;15392;48.912;8.380;2023-03-03T02:05:56;11.35;;;10.48;;
28086;SDS011;15392;48.912;8.380;2023-03-03T02:08:30;11.43;;;10.52;;
28086;SDS011;15392;48.912;8.380;2023-03-03T02:11:05;10.82;;;9.95;;
28086;SDS011;15392;48.912;8.380;2023-03-03T02:13:31;10.70;;;9.90;;
28086;SDS011;15392;48.912;8.380;2023-03-03T02:15:56;11.32;;;10.43;;
28086;SDS011;15392;48.912;8.380;2023-03-03T02:18:23;10.95;;;10.07;;
28086;SDS011;15392;48.912;8.380;2023-03-03T02:26:08;10.07;;;9.30;;
28086;SDS011;15392;48.912;8.380;2023-03-03T02:28:46;9.82;;;9.18;;
28086;SDS011;15392;48.912;8.380;2023-03-03T02:31:14;10.50;;;9.65;;
28086;SDS011;15392;48.912;8.380;2023-03-03T02:33:44;9.93;;;9.02;;
28086;SDS011;15392;48.912;8.380;2023-03-03T02:36:13;9.40;;;8.77;;
28086;SDS011;15392;48.912;8.380;2023-03-03T02:38:50;9.32;;;8.63;;
28086;SDS011;15392;48.912;8.380;2023-03-03T02:41:49;10.00;;;9.20;;
28086;SDS011;15392;48.912;8.380;2023-03-03T02:44:37;10.18;;;9.38;;
28086;SDS011;15392;48.912;8.380;2023-03-03T02:47:03;10.55;;;9.75;;
28086;SDS011;15392;48.912;8.380;2023-03-03T02:49:30;10.32;;;9.55;;
28086;SDS011;15392;48.912;8.380;2023-03-03T02:51:58;11.13;;;10.25;;
28086;SDS011;15392;48.912;8.380;2023-03-03T02:54:27;10.93;;;10.05;;
28086;SDS011;15392;48.912;8.380;2023-03-03T02:56:55;10.90;;;10.00;;
28086;SDS011;15392;48.912;8.380;2023-03-03T02:59:21;11.13;;;10.23;;
28086;SDS011;15392;48.912;8.380;2023-03-03T03:01:47;10.90;;;10.13;;
28086;SDS011;15392;48.912;8.380;2023-03-03T03:04:18;10.90;;;10.10;;
28086;SDS011;15392;48.912;8.380;2023-03-03T03:06:46;11.15;;;10.30;;
28086;SDS011;15392;48.912;8.380;2023-03-03T03:09:12;10.68;;;9.88;;
28086;SDS011;15392;48.912;8.380;2023-03-03T03:11:40;10.50;;;9.65;;
28086;SDS011;15392;48.912;8.380;2023-03-03T03:14:07;10.52;;;9.75;;
28086;SDS011;15392;48.912;8.380;2023-03-03T03:16:35;10.43;;;9.65;;
28086;SDS011;15392;48.912;8.380;2023-03-03T03:19:01;11.38;;;10.48;;
28086;SDS011;15392;48.912;8.380;2023-03-03T03:21:28;10.50;;;9.70;;
28086;SDS011;15392;48.912;8.380;2023-03-03T03:23:55;11.15;;;10.35;;
28086;SDS011;15392;48.912;8.380;2023-03-03T03:26:21;10.93;;;10.13;;
28086;SDS011;15392;48.912;8.380;2023-03-03T03:28:47;10.32;;;9.55;;
28086;SDS011;15392;48.912;8.380;2023-03-03T03:31:14;10.48;;;9.68;;
28086;SDS011;15392;48.912;8.380;2023-03-03T03:33:40;10.90;;;10.02;;
28086;SDS011;15392;48.912;8.380;2023-03-03T03:36:06;10.73;;;9.95;;
28086;SDS011;15392;48.912;8.380;2023-03-03T03:38:33;10.27;;;9.48;;
28086;SDS011;15392;48.912;8.380;2023-03-03T03:41:03;10.30;;;9.50;;
28086;SDS011;15392;48.912;8.380;2023-03-03T03:43:31;10.88;;;10.00;;
28086;SDS011;15392;48.912;8.380;2023-03-03T03:45:57;10.90;;;10.05;;
28086;SDS011;15392;48.912;8.380;2023-03-03T03:48:23;10.10;;;9.43;;
28086;SDS011;15392;48.912;8.380;2023-03-03T03:50:49;10.63;;;9.82;;
28086;SDS011;15392;48.912;8.380;2023-03-03T03:53:16;10.23;;;9.48;;
28086;SDS011;15392;48.912;8.380;2023-03-03T03:55:43;10.25;;;9.40;;
28086;SDS011;15392;48.912;8.380;2023-03-03T03:58:13;10.77;;;9.95;;
28086;SDS011;15392;48.912;8.380;2023-03-03T04:00:41;10.40;;;9.65;;
28086;SDS011;15392;48.912;8.380;2023-03-03T04:03:09;10.88;;;9.88;;
28086;SDS011;15392;48.912;8.380;2023-03-03T04:05:35;10.65;;;9.93;;
28086;SDS011;15392;48.912;8.380;2023-03-03T04:08:01;9.90;;;9.20;;
28086;SDS011;15392;48.912;8.380;2023-03-03T04:10:27;9.38;;;8.73;;
28086;SDS011;15392;48.912;8.380;2023-03-03T04:12:53;10.57;;;9.77;;
28086;SDS011;15392;48.912;8.380;2023-03-03T04:15:18;10.05;;;9.35;;
28086;SDS011;15392;48.912;8.380;2023-03-03T04:17:44;10.25;;;9.48;;
28086;SDS011;15392;48.912;8.380;2023-03-03T04:20:11;10.40;;;9.60;;
28086;SDS011;15392;48.912;8.380;2023-03-03T04:22:40;10.63;;;9.80;;
28086;SDS011;15392;48.912;8.380;2023-03-03T04:25:07;10.07;;;9.27;;
28086;SDS011;15392;48.912;8.380;2023-03-03T04:27:35;10.30;;;9.50;;
28086;SDS011;15392;48.912;8.380;2023-03-03T04:30:03;10.00;;;9.20;;
28086;SDS011;15392;48.912;8.380;2023-03-03T04:32:30;9.95;;;9.25;;
28086;SDS011;15392;48.912;8.380;2023-03-03T04:34:58;11.02;;;10.13;;
28086;SDS011;15392;48.912;8.380;2023-03-03T04:37:24;9.98;;;9.23;;
28086;SDS011;15392;48.912;8.380;2023-03-03T04:39:50;10.02;;;9.32;;
28086;SDS011;15392;48.912;8.380;2023-03-03T04:42:15;10.27;;;9.48;;
28086;SDS011;15392;48.912;8.380;2023-03-03T04:44:41;10.98;;;10.10;;
28086;SDS011;15392;48.912;8.380;2023-03-03T04:47:07;10.52;;;9.75;;
28086;SDS011;15392;48.912;8.380;2023-03-03T04:49:33;10.20;;;9.50;;
28086;SDS011;15392;48.912;8.380;2023-03-03T04:51:59;11.35;;;10.43;;
28086;SDS011;15392;48.912;8.380;2023-03-03T04:54:25;10.90;;;10.10;;
28086;SDS011;15392;48.912;8.380;2023-03-03T04:56:50;9.93;;;9.20;;
28086;SDS011;15392;48.912;8.380;2023-03-03T04:59:16;10.55;;;9.75;;
28086;SDS011;15392;48.912;8.380;2023-03-03T05:01:42;9.65;;;8.95;;
28086;SDS011;15392;48.912;8.380;2023-03-03T05:04:08;10.02;;;8.95;;
28086;SDS011;15392;48.912;8.380;2023-03-03T05:06:33;10.65;;;9.85;;
28086;SDS011;15392;48.912;8.380;2023-03-03T05:08:59;10.50;;;9.70;;
28086;SDS011;15392;48.912;8.380;2023-03-03T05:11:25;10.35;;;9.55;;
28086;SDS011;15392;48.912;8.380;2023-03-03T05:13:50;9.50;;;8.82;;
28086;SDS011;15392;48.912;8.380;2023-03-03T05:16:16;9.50;;;8.70;;
28086;SDS011;15392;48.912;8.380;2023-03-03T05:18:42;9.80;;;9.10;;
28086;SDS011;15392;48.912;8.380;2023-03-03T05:21:09;9.90;;;9.10;;
28086;SDS011;15392;48.912;8.380;2023-03-03T05:23:36;9.70;;;9.00;;
28086;SDS011;15392;48.912;8.380;2023-03-03T05:26:02;10.00;;;9.30;;
28086;SDS011;15392;48.912;8.380;2023-03-03T05:28:28;9.27;;;8.68;;
28086;SDS011;15392;48.912;8.380;2023-03-03T05:30:54;9.15;;;8.48;;
28086;SDS011;15392;48.912;8.380;2023-03-03T05:33:20;8.88;;;8.27;;
28086;SDS011;15392;48.912;8.380;2023-03-03T05:35:45;8.95;;;8.32;;
28086;SDS011;15392;48.912;8.380;2023-03-03T05:38:11;9.05;;;8.45;;
28086;SDS011;15392;48.912;8.380;2023-03-03T05:40:37;8.50;;;7.93;;
28086;SDS011;15392;48.912;8.380;2023-03-03T05:43:03;8.60;;;8.00;;
28086;SDS011;15392;48.912;8.380;2023-03-03T05:45:29;9.02;;;8.43;;
28086;SDS011;15392;48.912;8.380;2023-03-03T05:47:55;8.10;;;7.60;;
28086;SDS011;15392;48.912;8.380;2023-03-03T05:50:21;7.95;;;7.45;;
28086;SDS011;15392;48.912;8.380;2023-03-03T05:52:50;8.85;;;8.15;;
28086;SDS011;15392;48.912;8.380;2023-03-03T05:55:17;8.82;;;8.15;;
28086;SDS011;15392;48.912;8.380;2023-03-03T05:57:43;8.85;;;8.32;;
28086;SDS011;15392;48.912;8.380;2023-03-03T06:00:10;8.40;;;7.80;;
28086;SDS011;15392;48.912;8.380;2023-03-03T06:02:38;9.10;;;8.45;;
28086;SDS011;15392;48.912;8.380;2023-03-03T06:05:04;9.40;;;8.70;;
28086;SDS011;15392;48.912;8.380;2023-03-03T06:07:30;9.15;;;8.55;;
28086;SDS011;15392;48.912;8.380;2023-03-03T06:09:56;9.57;;;8.90;;
28086;SDS011;15392;48.912;8.380;2023-03-03T06:12:22;10.10;;;9.32;;
28086;SDS011;15392;48.912;8.380;2023-03-03T06:14:47;10.05;;;9.02;;
28086;SDS011;15392;48.912;8.380;2023-03-03T06:17:13;9.75;;;9.05;;
28086;SDS011;15392;48.912;8.380;2023-03-03T06:19:39;10.27;;;9.57;;
28086;SDS011;15392;48.912;8.380;2023-03-03T06:22:05;10.50;;;9.80;;
28086;SDS011;15392;48.912;8.380;2023-03-03T06:24:32;12.82;;;11.80;;
28086;SDS011;15392;48.912;8.380;2023-03-03T06:26:59;11.32;;;10.43;;
28086;SDS011;15392;48.912;8.380;2023-03-03T06:29:25;10.18;;;9.38;;
28086;SDS011;15392;48.912;8.380;2023-03-03T06:31:52;9.40;;;8.70;;
28086;SDS011;15392;48.912;8.380;2023-03-03T06:34:18;10.05;;;9.25;;
28086;SDS011;15392;48.912;8.380;2023-03-03T06:36:44;10.32;;;9.63;;
28086;SDS011;15392;48.912;8.380;2023-03-03T06:39:10;10.70;;;9.95;;
28086;SDS011;15392;48.912;8.380;2023-03-03T06:41:36;10.13;;;9.43;;
28086;SDS011;15392;48.912;8.380;2023-03-03T06:44:03;9.82;;;9.13;;
28086;SDS011;15392;48.912;8.380;2023-03-03T06:46:29;9.18;;;8.48;;
28086;SDS011;15392;48.912;8.380;2023-03-03T06:48:55;8.85;;;8.20;;
28086;SDS011;15392;48.912;8.380;2023-03-03T06:51:24;9.07;;;8.40;;
28086;SDS011;15392;48.912;8.380;2023-03-03T06:53:58;8.00;;;7.50;;
28086;SDS011;15392;48.912;8.380;2023-03-03T06:56:34;9.10;;;8.48;;
28086;SDS011;15392;48.912;8.380;2023-03-03T06:59:05;8.32;;;7.72;;
28086;SDS011;15392;48.912;8.380;2023-03-03T07:01:42;8.82;;;8.23;;
28086;SDS011;15392;48.912;8.380;2023-03-03T07:04:26;8.88;;;8.27;;
28086;SDS011;15392;48.912;8.380;2023-03-03T07:06:57;8.52;;;7.93;;
28086;SDS011;15392;48.912;8.380;2023-03-03T07:09:45;9.63;;;8.75;;
28086;SDS011;15392;48.912;8.380;2023-03-03T07:12:18;8.95;;;8.35;;
28086;SDS011;15392;48.912;8.380;2023-03-03T07:14:51;10.13;;;9.43;;
28086;SDS011;15392;48.912;8.380;2023-03-03T07:17:34;10.48;;;9.73;;
28086;SDS011;15392;48.912;8.380;2023-03-03T07:22:49;10.40;;;9.60;;
28086;SDS011;15392;48.912;8.380;2023-03-03T07:25:28;10.20;;;9.50;;
28086;SDS011;15392;48.912;8.380;2023-03-03T07:28:00;9.38;;;8.70;;
28086;SDS011;15392;48.912;8.380;2023-03-03T07:30:48;9.50;;;8.90;;
28086;SDS011;15392;48.912;8.380;2023-03-03T07:33:22;9.35;;;8.65;;
28086;SDS011;15392;48.912;8.380;2023-03-03T07:35:55;9.00;;;8.35;;
28086;SDS011;15392;48.912;8.380;2023-03-03T07:40:59;9.77;;;9.10;;
28086;SDS011;15392;48.912;8.380;2023-03-03T07:46:24;9.38;;;8.75;;
28086;SDS011;15392;48.912;8.380;2023-03-03T07:51:53;8.85;;;8.25;;
28086;SDS011;15392;48.912;8.380;2023-03-03T07:54:37;9.18;;;8.48;;
28086;SDS011;15392;48.912;8.380;2023-03-03T08:02:59;8.82;;;8.23;;
28086;SDS011;15392;48.912;8.380;2023-03-03T08:13:18;9.05;;;8.38;;
28086;SDS011;15392;48.912;8.380;2023-03-03T08:15:55;9.63;;;9.00;;
28086;SDS011;15392;48.912;8.380;2023-03-03T08:18:33;10.20;;;9.40;;
28086;SDS011;15392;48.912;8.380;2023-03-03T08:21:24;10.40;;;9.60;;
28086;SDS011;15392;48.912;8.380;2023-03-03T08:23:49;9.65;;;8.95;;
28086;SDS011;15392;48.912;8.380;2023-03-03T08:26:17;10.85;;;9.95;;
28086;SDS011;15392;48.912;8.380;2023-03-03T08:28:45;11.02;;;10.13;;
28086;SDS011;15392;48.912;8.380;2023-03-03T08:31:11;10.63;;;9.82;;
28086;SDS011;15392;48.912;8.380;2023-03-03T08:33:39;10.82;;;10.00;;
28086;SDS011;15392;48.912;8.380;2023-03-03T08:36:05;10.40;;;9.68;;
28086;SDS011;15392;48.912;8.380;2023-03-03T08:38:32;10.00;;;9.27;;
28086;SDS011;15392;48.912;8.380;2023-03-03T08:40:58;10.52;;;9.73;;
28086;SDS011;15392;48.912;8.380;2023-03-03T08:43:24;10.85;;;10.07;;
28086;SDS011;15392;48.912;8.380;2023-03-03T08:45:52;10.82;;;10.00;;
28086;SDS011;15392;48.912;8.380;2023-03-03T08:48:22;10.73;;;9.93;;
28086;SDS011;15392;48.912;8.380;2023-03-03T08:50:48;11.10;;;10.20;;
28086;SDS011;15392;48.912;8.380;2023-03-03T08:53:14;10.50;;;9.73;;
28086;SDS011;15392;48.912;8.380;2023-03-03T08:55:41;10.05;;;9.35;;
28086;SDS011;15392;48.912;8.380;2023-03-03T08:58:07;10.93;;;10.13;;
28086;SDS011;15392;48.912;8.380;2023-03-03T09:00:33;10.35;;;9.65;;
28086;SDS011;15392;48.912;8.380;2023-03-03T09:02:59;10.63;;;9.68;;
28086;SDS011;15392;48.912;8.380;2023-03-03T09:05:25;9.95;;;9.25;;
28086;SDS011;15392;48.912;8.380;2023-03-03T09:07:52;11.02;;;10.02;;
28086;SDS011;15392;48.912;8.380;2023-03-03T09:10:20;10.63;;;9.82;;
28086;SDS011;15392;48.912;8.380;2023-03-03T09:12:52;9.65;;;9.00;;
28086;SDS011;15392;48.912;8.380;2023-03-03T09:15:34;9.27;;;8.63;;
28086;SDS011;15392;48.912;8.380;2023-03-03T09:20:53;9.23;;;8.52;;
28086;SDS011;15392;48.912;8.380;2023-03-03T09:29:08;9.50;;;8.82;;
28086;SDS011;15392;48.912;8.380;2023-03-03T09:34:27;9.77;;;9.07;;
28086;SDS011;15392;48.912;8.380;2023-03-03T09:39:39;9.43;;;8.82;;
28086;SDS011;15392;48.912;8.380;2023-03-03T09:42:08;9.77;;;9.05;;
28086;SDS011;15392;48.912;8.380;2023-03-03T09:53:52;9.05;;;8.45;;
28086;SDS011;15392;48.912;8.380;2023-03-03T09:56:46;8.52;;;7.93;;
28086;SDS011;15392;48.912;8.380;2023-03-03T09:59:24;8.93;;;8.30;;
28086;SDS011;15392;48.912;8.380;2023-03-03T10:02:18;9.57;;;8.68;;
28086;SDS011;15392;48.912;8.380;2023-03-03T10:07:41;9.55;;;8.93;;
28086;SDS011;15392;48.912;8.380;2023-03-03T10:10:24;9.35;;;8.63;;
28086;SDS011;15392;48.912;8.380;2023-03-03T10:16:30;8.45;;;7.93;;
28086;SDS011;15392;48.912;8.380;2023-03-03T10:19:38;8.90;;;8.32;;
28086;SDS011;15392;48.912;8.380;2023-03-03T10:22:34;9.48;;;8.82;;
28086;SDS011;15392;48.912;8.380;2023-03-03T10:28:03;9.65;;;8.95;;
28086;SDS011;15392;48.912;8.380;2023-03-03T10:31:11;8.52;;;7.93;;
28086;SDS011;15392;48.912;8.380;2023-03-03T10:34:13;8.70;;;8.13;;
28086;SDS011;15392;48.912;8.380;2023-03-03T10:36:56;9.23;;;8.55;;
28086;SDS011;15392;48.912;8.380;2023-03-03T10:56:56;8.65;;;8.05;;
28086;SDS011;15392;48.912;8.380;2023-03-03T11:02:26;8.63;;;8.07;;
28086;SDS011;15392;48.912;8.380;2023-03-03T11:05:30;8.63;;;8.02;;
28086;SDS011;15392;48.912;8.380;2023-03-03T11:10:50;7.38;;;6.95;;
28086;SDS011;15392;48.912;8.380;2023-03-03T11:13:21;8.57;;;8.00;;
28086;SDS011;15392;48.912;8.380;2023-03-03T11:16:13;8.77;;;8.18;;
28086;SDS011;15392;48.912;8.380;2023-03-03T11:18:53;9.30;;;8.70;;
28086;SDS011;15392;48.912;8.380;2023-03-03T11:22:08;9.43;;;8.73;;
28086;SDS011;15392;48.912;8.380;2023-03-03T11:30:25;8.40;;;7.90;;
28086;SDS011;15392;48.912;8.380;2023-03-03T11:33:08;9.13;;;8.52;;
28086;SDS011;15392;48.912;8.380;2023-03-03T11:41:16;8.73;;;8.23;;
28086;SDS011;15392;48.912;8.380;2023-03-03T11:43:46;9.65;;;8.85;;
28086;SDS011;15392;48.912;8.380;2023-03-03T11:46:28;9.30;;;8.70;;
28086;SDS011;15392;48.912;8.380;2023-03-03T11:52:08;8.95;;;8.35;;
28086;SDS011;15392;48.912;8.380;2023-03-03T11:55:02;9.00;;;8.40;;
28086;SDS011;15392;48.912;8.380;2023-03-03T11:57:31;8.73;;;8.13;;
28086;SDS011;15392;48.912;8.380;2023-03-03T12:03:25;8.32;;;7.82;;
28086;SDS011;15392;48.912;8.380;2023-03-03T12:06:39;8.07;;;7.50;;
28086;SDS011;15392;48.912;8.380;2023-03-03T12:09:48;8.27;;;7.78;;
28086;SDS011;15392;48.912;8.380;2023-03-03T12:12:33;8.75;;;8.20;;
28086;SDS011;15392;48.912;8.380;2023-03-03T12:27:04;8.15;;;7.65;;
28086;SDS011;15392;48.912;8.380;2023-03-03T12:32:51;6.68;;;6.07;;
28086;SDS011;15392;48.912;8.380;2023-03-03T12:35:38;7.50;;;7.10;;
28086;SDS011;15392;48.912;8.380;2023-03-03T12:41:18;7.63;;;7.13;;
28086;SDS011;15392;48.912;8.380;2023-03-03T12:46:51;7.65;;;7.20;;
28086;SDS011;15392;48.912;8.380;2023-03-03T12:56:28;8.00;;;7.47;;
28086;SDS011;15392;48.912;8.380;2023-03-03T12:59:13;8.30;;;7.80;;
28086;SDS011;15392;48.912;8.380;2023-03-03T13:10:38;6.78;;;6.45;;
28086;SDS011;15392;48.912;8.380;2023-03-03T13:13:16;7.70;;;7.20;;
28086;SDS011;15392;48.912;8.380;2023-03-03T13:19:19;7.80;;;7.32;;
28086;SDS011;15392;48.912;8.380;2023-03-03T13:21:58;7.97;;;7.47;;
28086;SDS011;15392;48.912;8.380;2023-03-03T13:27:14;8.15;;;7.65;;
28086;SDS011;15392;48.912;8.380;2023-03-03T13:30:29;7.93;;;7.50;;
28086;SDS011;15392;48.912;8.380;2023-03-03T13:33:02;7.72;;;7.30;;
28086;SDS011;15392;48.912;8.380;2023-03-03T13:35:53;8.07;;;7.57;;
28086;SDS011;15392;48.912;8.380;2023-03-03T13:38:33;7.93;;;7.38;;
28086;SDS011;15392;48.912;8.380;2023-03-03T13:44:21;7.90;;;7.40;;
28086;SDS011;15392;48.912;8.380;2023-03-03T13:52:14;8.05;;;7.45;;
28086;SDS011;15392;48.912;8.380;2023-03-03T13:55:05;7.90;;;7.45;;
28086;SDS011;15392;48.912;8.380;2023-03-03T13:57:43;8.13;;;7.63;;
28086;SDS011;15392;48.912;8.380;2023-03-03T14:03:33;7.55;;;7.05;;
28086;SDS011;15392;48.912;8.380;2023-03-03T14:12:20;7.68;;;7.20;;
28086;SDS011;15392;48.912;8.380;2023-03-03T14:18:17;7.57;;;7.10;;
28086;SDS011;15392;48.912;8.380;2023-03-03T14:21:08;8.00;;;7.50;;
28086;SDS011;15392;48.912;8.380;2023-03-03T14:23:46;7.85;;;7.45;;
28086;SDS011;15392;48.912;8.380;2023-03-03T14:26:21;8.80;;;8.23;;
28086;SDS011;15392;48.912;8.380;2023-03-03T14:28:47;8.38;;;7.85;;
28086;SDS011;15392;48.912;8.380;2023-03-03T14:36:31;8.77;;;8.18;;
28086;SDS011;15392;48.912;8.380;2023-03-03T14:39:22;8.50;;;7.97;;
28086;SDS011;15392;48.912;8.380;2023-03-03T14:41:57;7.97;;;7.47;;
28086;SDS011;15392;48.912;8.380;2023-03-03T14:44:36;8.18;;;7.68;;
28086;SDS011;15392;48.912;8.380;2023-03-03T14:47:21;7.93;;;7.28;;
28086;SDS011;15392;48.912;8.380;2023-03-03T14:49:50;8.15;;;7.55;;
28086;SDS011;15392;48.912;8.380;2023-03-03T14:52:26;8.23;;;7.72;;
28086;SDS011;15392;48.912;8.380;2023-03-03T14:54:58;9.48;;;8.77;;
28086;SDS011;15392;48.912;8.380;2023-03-03T15:05:24;9.00;;;8.45;;
28086;SDS011;15392;48.912;8.380;2023-03-03T15:07:56;9.05;;;8.45;;
28086;SDS011;15392;48.912;8.380;2023-03-03T15:15:50;8.88;;;8.35;;
28086;SDS011;15392;48.912;8.380;2023-03-03T15:21:25;8.35;;;7.85;;
28086;SDS011;15392;48.912;8.380;2023-03-03T15:24:06;8.77;;;8.18;;
28086;SDS011;15392;48.912;8.380;2023-03-03T15:26:45;8.85;;;8.27;;
28086;SDS011;15392;48.912;8.380;2023-03-03T15:32:58;8.23;;;7.72;;
28086;SDS011;15392;48.912;8.380;2023-03-03T15:40:59;7.95;;;7.45;;
28086;SDS011;15392;48.912;8.380;2023-03-03T15:43:39;7.68;;;7.28;;
28086;SDS011;15392;48.912;8.380;2023-03-03T15:46:23;8.82;;;8.30;;
28086;SDS011;15392;48.912;8.380;2023-03-03T16:00:45;8.07;;;7.57;;
28086;SDS011;15392;48.912;8.380;2023-03-03T16:03:50;8.40;;;7.90;;
28086;SDS011;15392;48.912;8.380;2023-03-03T16:09:26;9.52;;;8.80;;
28086;SDS011;15392;48.912;8.380;2023-03-03T16:12:28;8.95;;;8.43;;
28086;SDS011;15392;48.912;8.380;2023-03-03T16:32:50;9.98;;;6.78;;
28086;SDS011;15392;48.912;8.380;2023-03-03T16:35:38;7.50;;;6.95;;
28086;SDS011;15392;48.912;8.380;2023-03-03T16:41:02;8.45;;;7.95;;
28086;SDS011;15392;48.912;8.380;2023-03-03T16:43:49;8.52;;;8.02;;
28086;SDS011;15392;48.912;8.380;2023-03-03T16:48:04;8.43;;;7.82;;
28086;SDS011;15392;48.912;8.380;2023-03-03T17:03:50;10.52;;;9.80;;
28086;SDS011;15392;48.912;8.380;2023-03-03T17:06:36;10.35;;;9.65;;
28086;SDS011;15392;48.912;8.380;2023-03-03T17:09:21;9.20;;;8.60;;
28086;SDS011;15392;48.912;8.380;2023-03-03T17:15:04;8.10;;;7.60;;
28086;SDS011;15392;48.912;8.380;2023-03-03T17:18:13;7.32;;;6.75;;
28086;SDS011;15392;48.912;8.380;2023-03-03T17:20:57;7.93;;;7.43;;
28086;SDS011;15392;48.912;8.380;2023-03-03T17:29:18;7.20;;;6.80;;
28086;SDS011;15392;48.912;8.380;2023-03-03T17:32:17;7.90;;;7.38;;
28086;SDS011;15392;48.912;8.380;2023-03-03T17:38:01;7.88;;;7.38;;
28086;SDS011;15392;48.912;8.380;2023-03-03T17:43:35;7.72;;;7.22;;
28086;SDS011;15392;48.912;8.380;2023-03-03T17:46:29;7.63;;;7.10;;
28086;SDS011;15392;48.912;8.380;2023-03-03T17:57:23;8.88;;;8.27;;
28086;SDS011;15392;48.912;8.380;2023-03-03T18:00:20;8.95;;;8.35;;
28086;SDS011;15392;48.912;8.380;2023-03-03T18:06:37;10.45;;;9.68;;
28086;SDS011;15392;48.912;8.380;2023-03-03T18:12:42;8.93;;;8.32;;
28086;SDS011;15392;48.912;8.380;2023-03-03T18:23:44;7.97;;;7.47;;
28086;SDS011;15392;48.912;8.380;2023-03-03T18:26:30;8.13;;;7.60;;
28086;SDS011;15392;48.912;8.380;2023-03-03T18:40:41;8.73;;;8.18;;
28086;SDS011;15392;48.912;8.380;2023-03-03T18:46:08;9.02;;;8.43;;
28086;SDS011;15392;48.912;8.380;2023-03-03T18:49:11;11.05;;;10.20;;
28086;SDS011;15392;48.912;8.380;2023-03-03T18:59:09;7.68;;;7.22;;
28086;SDS011;15392;48.912;8.380;2023-03-03T19:04:44;6.93;;;6.53;;
28086;SDS011;15392;48.912;8.380;2023-03-03T19:12:52;6.30;;;5.90;;
28086;SDS011;15392;48.912;8.380;2023-03-03T19:20:24;5.78;;;5.47;;
28086;SDS011;15392;48.912;8.380;2023-03-03T19:23:03;5.93;;;5.60;;
28086;SDS011;15392;48.912;8.380;2023-03-03T19:25:35;6.25;;;5.85;;
28086;SDS011;15392;48.912;8.380;2023-03-03T19:34:10;5.60;;;5.30;;
28086;SDS011;15392;48.912;8.380;2023-03-03T19:37:03;5.38;;;5.07;;
28086;SDS011;15392;48.912;8.380;2023-03-03T19:45:27;5.95;;;5.65;;
28086;SDS011;15392;48.912;8.380;2023-03-03T19:52:00;5.35;;;5.05;;
28086;SDS011;15392;48.912;8.380;2023-03-03T19:55:03;5.13;;;4.82;;
28086;SDS011;15392;48.912;8.380;2023-03-03T20:00:48;4.50;;;4.30;;
28086;SDS011;15392;48.912;8.380;2023-03-03T20:16:22;4.95;;;4.65;;
28086;SDS011;15392;48.912;8.380;2023-03-03T20:37:14;7.00;;;6.43;;
28086;SDS011;15392;48.912;8.380;2023-03-03T20:40:14;6.40;;;6.00;;
28086;SDS011;15392;48.912;8.380;2023-03-03T20:52:10;3.65;;;3.47;;
28086;SDS011;15392;48.912;8.380;2023-03-03T20:55:03;4.07;;;3.88;;
28086;SDS011;15392;48.912;8.380;2023-03-03T20:57:59;3.20;;;3.03;;
28086;SDS011;15392;48.912;8.380;2023-03-03T21:03:34;3.20;;;3.10;;
28086;SDS011;15392;48.912;8.380;2023-03-03T21:06:10;3.30;;;3.20;;
28086;SDS011;15392;48.912;8.380;2023-03-03T21:11:18;3.25;;;3.05;;
28086;SDS011;15392;48.912;8.380;2023-03-03T21:13:49;3.17;;;2.97;;
28086;SDS011;15392;48.912;8.380;2023-03-03T21:19:03;3.10;;;3.00;;
28086;SDS011;15392;48.912;8.380;2023-03-03T21:21:38;2.90;;;2.80;;
28086;SDS011;15392;48.912;8.380;2023-03-03T21:24:11;3.30;;;3.10;;
28086;SDS011;15392;48.912;8.380;2023-03-03T21:26:43;2.88;;;2.78;;
28086;SDS011;15392;48.912;8.380;2023-03-03T21:29:19;3.67;;;3.47;;
28086;SDS011;15392;48.912;8.380;2023-03-03T21:31:57;3.80;;;3.60;;
28086;SDS011;15392;48.912;8.380;2023-03-03T21:34:27;3.30;;;3.20;;
28086;SDS011;15392;48.912;8.380;2023-03-03T21:36:53;4.45;;;3.22;;
28086;SDS011;15392;48.912;8.380;2023-03-03T21:39:24;3.97;;;3.78;;
28086;SDS011;15392;48.912;8.380;2023-03-03T21:42:01;3.97;;;3.78;;
28086;SDS011;15392;48.912;8.380;2023-03-03T21:44:30;3.40;;;3.28;;
28086;SDS011;15392;48.912;8.380;2023-03-03T21:47:14;3.70;;;3.50;;
28086;SDS011;15392;48.912;8.380;2023-03-03T21:49:46;3.13;;;3.03;;
28086;SDS011;15392;48.912;8.380;2023-03-03T21:52:15;3.70;;;3.50;;
28086;SDS011;15392;48.912;8.380;2023-03-03T21:54:44;3.45;;;3.25;;
28086;SDS011;15392;48.912;8.380;2023-03-03T21:57:11;3.67;;;3.47;;
28086;SDS011;15392;48.912;8.380;2023-03-03T21:59:38;3.95;;;3.75;;
28086;SDS011;15392;48.912;8.380;2023-03-03T22:02:04;3.88;;;3.67;;
28086;SDS011;15392;48.912;8.380;2023-03-03T22:04:31;4.13;;;3.92;;
28086;SDS011;15392;48.912;8.380;2023-03-03T22:06:57;4.18;;;3.97;;
28086;SDS011;15392;48.912;8.380;2023-03-03T22:09:23;4.97;;;4.40;;